Terminal Aerodrome Forecast
Issued by NWS Cleveland, OH

Home | Current Version | Previous Version | Graphics & Text | Print | Product List | Glossary On
Versions: 1 2 3 4 5 6 7 8 9 10 11 12 13 14 15 16 17 18 19
908
FTUS41 KCLE 210505 AAC
TAFTOL
TAF AMD
KTOL 210505Z 2105/2124 34004KT 1/4SM FG VV002
      TEMPO 2107/2110 1SM BR OVC004
     FM211000 34005KT 4SM BR OVC008
     FM211300 33006KT P6SM BKN100
     FM211500 32012G20KT P6SM SCT035=

USA.gov is the U.S. government's official web portal to all federal, state and local government web resources and services.